LFTW/FNI METAR and TAF weather

Enter ICAO airport designator
Station Type Date Time Source
LFTW METAR 2021/10/20 07:30 UTC NOAA

LFTW 200730Z AUTO 12008KT 9999 SCT022 BKN047 OVC062 17/15 Q1024 NOSIG


Station Type Date Time Source
LFTW Decoded METAR 2021/10/20 07:30 UTC NOAA

Nimes / Garons, France (LFTW) 43-45N 004-25E 96M
Oct 20, 2021 - 03:30 AM EDT / 2021.10.20 0730 UTC
Wind: from the ESE (120 degrees) at 9 MPH (8 KT):0
Visibility: greater than 7 mile(s):0
Sky conditions: overcast
Temperature: 62 F (17 C)
Dew Point: 59 F (15 C)
Relative Humidity: 88%
Pressure (altimeter): 30.24 in. Hg (1024 hPa)
ob: LFTW 200730Z AUTO 12008KT 9999 SCT022 BKN047 OVC062 17/15 Q1024 NOSIG
cycle: 7

Station Type Date Time Source
LFTW TAF 2021/10/20 03:26 UTC NOAA

TAF LFTW 200200Z 2003/2103 12010KT 9999 BKN025 BKN040 PROB30
TEMPO 2102/2103 RA

Example: see airport list